createdAt,value
2019-04-26T00:02:00.222Z,37.81
2019-04-26T00:04:32.218Z,38.17
2019-04-26T00:07:03.753Z,38.56
2019-04-26T00:09:37.041Z,38.59
2019-04-26T00:12:16.398Z,38.85
2019-04-26T00:14:58.711Z,38.84
2019-04-26T00:17:34.956Z,38.64
2019-04-26T00:20:08.709Z,38.48
2019-04-26T00:22:40.166Z,38.48
2019-04-26T00:25:12.477Z,38.61
2019-04-26T00:27:44.051Z,38.38
2019-04-26T00:30:17.005Z,38.68
2019-04-26T00:32:48.603Z,38.59
2019-04-26T00:35:20.248Z,38.33
2019-04-26T00:37:51.654Z,38.32
2019-04-26T00:40:23.423Z,38.33
2019-04-26T00:42:57.572Z,38.34
2019-04-26T00:45:31.239Z,38.31
2019-04-26T00:48:04.355Z,38.16
2019-04-26T00:50:36.790Z,38.32
2019-04-26T00:53:09.755Z,38.43
2019-04-26T00:55:41.954Z,38.47
2019-04-26T00:58:15.349Z,38.48
2019-04-26T01:00:47.941Z,38.55
2019-04-26T01:03:20.620Z,38.60
2019-04-26T01:05:59.827Z,38.62
2019-04-26T01:08:26.497Z,38.75
2019-04-26T01:10:58.015Z,38.83
2019-04-26T01:13:29.430Z,38.89
2019-04-26T01:16:01.236Z,38.93
2019-04-26T01:18:33.968Z,38.98
2019-04-26T01:21:12.664Z,39.11
2019-04-26T01:23:50.220Z,39.19
2019-04-26T01:26:27.540Z,39.27
2019-04-26T01:29:01.925Z,39.40
2019-04-26T01:31:36.246Z,39.50
2019-04-26T01:34:07.930Z,39.53
2019-04-26T01:36:40.897Z,39.57
2019-04-26T01:39:16.591Z,39.74
2019-04-26T01:42:03.223Z,39.79
2019-04-26T01:44:45.126Z,39.91
2019-04-26T01:47:17.032Z,40.06
2019-04-26T01:49:49.526Z,40.21
2019-04-26T01:52:22.365Z,40.49
2019-04-26T01:54:53.989Z,40.44
2019-04-26T01:57:29.382Z,40.45
2019-04-26T02:00:02.868Z,40.58
2019-04-26T02:02:36.040Z,40.59
2019-04-26T02:05:09.334Z,40.64
2019-04-26T02:07:43.244Z,40.70
2019-04-26T02:10:17.278Z,40.77
2019-04-26T02:12:49.776Z,40.81
2019-04-26T02:15:24.444Z,40.87
2019-04-26T02:17:59.084Z,40.87
2019-04-26T02:21:04.183Z,40.90
2019-04-26T02:23:40.084Z,40.82
2019-04-26T02:26:30.766Z,40.87
2019-04-26T02:29:08.389Z,40.84
2019-04-26T02:31:41.993Z,40.81
2019-04-26T02:34:15.309Z,40.70
2019-04-26T02:36:57.575Z,40.78
2019-04-26T02:39:22.693Z,40.63
2019-04-26T02:41:57.066Z,40.68
2019-04-26T02:44:38.368Z,40.54
2019-04-26T02:47:39.855Z,40.50
2019-04-26T02:50:18.270Z,40.50
2019-04-26T02:53:12.019Z,40.50
2019-04-26T02:56:12.810Z,40.75
2019-04-26T02:58:57.134Z,41.46
2019-04-26T03:01:31.876Z,42.17
2019-04-26T03:04:02.966Z,41.79
2019-04-26T03:06:37.341Z,42.57
2019-04-26T03:09:08.328Z,42.32
2019-04-26T03:11:43.393Z,42.29
2019-04-26T03:14:19.238Z,42.91
2019-04-26T03:16:58.185Z,44.24
2019-04-26T03:19:52.384Z,43.99
2019-04-26T03:22:46.435Z,43.25
2019-04-26T03:25:31.336Z,43.30
2019-04-26T03:28:05.911Z,42.84
2019-04-26T03:30:56.754Z,42.21
2019-04-26T03:33:52.621Z,41.79
2019-04-26T03:36:23.921Z,41.46
2019-04-26T03:39:11.892Z,41.19
2019-04-26T03:42:18.393Z,41.02
2019-04-26T03:45:08.029Z,40.92
2019-04-26T03:47:53.254Z,40.94
2019-04-26T03:50:35.281Z,40.88
2019-04-26T03:53:21.088Z,40.91
2019-04-26T03:56:10.618Z,41.04
2019-04-26T03:59:02.070Z,41.16
2019-04-26T04:01:39.464Z,41.25
2019-04-26T04:04:31.065Z,41.42
2019-04-26T04:07:05.718Z,41.49
2019-04-26T04:09:41.465Z,41.50
2019-04-26T04:12:34.757Z,41.62
2019-04-26T04:15:16.168Z,41.53
2019-04-26T04:18:00.917Z,41.55
2019-04-26T04:20:44.382Z,41.68
2019-04-26T04:23:53.858Z,41.77
2019-04-26T04:26:28.269Z,41.82
2019-04-26T04:29:19.193Z,41.98
2019-04-26T04:31:59.860Z,41.96
2019-04-26T04:34:45.591Z,42.00
2019-04-26T04:37:19.747Z,41.93
2019-04-26T04:40:12.449Z,41.81
2019-04-26T04:43:03.947Z,41.89
2019-04-26T04:46:08.880Z,41.85
2019-04-26T04:48:56.527Z,42.00
2019-04-26T04:51:53.722Z,41.90
2019-04-26T04:54:41.563Z,41.79
2019-04-26T04:57:37.425Z,41.64
2019-04-26T05:00:47.178Z,41.67
2019-04-26T05:03:37.994Z,41.46
2019-04-26T05:06:20.008Z,41.18
2019-04-26T05:09:09.835Z,42.66
2019-04-26T05:11:47.681Z,43.60
2019-04-26T05:14:39.021Z,43.25
2019-04-26T05:17:47.484Z,42.23
2019-04-26T05:20:34.348Z,43.72
2019-04-26T05:23:37.549Z,44.60
2019-04-26T05:26:28.618Z,43.39
2019-04-26T05:29:34.015Z,44.12
2019-04-26T05:32:37.258Z,44.81
2019-04-26T05:35:40.448Z,44.47
2019-04-26T05:38:38.961Z,44.31
2019-04-26T05:41:19.976Z,43.90
2019-04-26T05:44:15.339Z,43.78
2019-04-26T05:46:53.917Z,44.02
2019-04-26T05:49:52.415Z,43.35
2019-04-26T05:52:47.327Z,43.38
2019-04-26T05:55:56.714Z,42.77
2019-04-26T05:58:39.894Z,42.60
2019-04-26T06:01:36.427Z,43.30
2019-04-26T06:04:24.301Z,42.48
2019-04-26T06:07:06.312Z,42.11
2019-04-26T06:10:04.542Z,42.85
2019-04-26T06:12:46.365Z,41.74
2019-04-26T06:15:31.410Z,42.15
2019-04-26T06:18:13.003Z,42.04
2019-04-26T06:20:47.508Z,41.30
2019-04-26T06:23:34.133Z,41.25
2019-04-26T06:26:33.804Z,41.13
2019-04-26T06:29:23.535Z,40.71
2019-04-26T06:32:06.947Z,40.41
2019-04-26T06:35:03.752Z,40.66
2019-04-26T06:37:57.924Z,40.33
2019-04-26T06:40:41.641Z,39.88
2019-04-26T06:43:10.186Z,39.63
2019-04-26T06:46:17.772Z,39.60
2019-04-26T06:49:20.554Z,39.46
2019-04-26T06:51:58.458Z,39.38
2019-04-26T06:54:36.040Z,39.58
2019-04-26T06:57:37.905Z,39.39
2019-04-26T07:00:20.502Z,39.25
2019-04-26T07:03:20.907Z,38.76
2019-04-26T07:06:02.425Z,38.35
2019-04-26T07:09:04.068Z,38.00
2019-04-26T07:12:07.269Z,37.49
2019-04-26T07:14:48.730Z,37.35
2019-04-26T07:17:47.350Z,37.41
2019-04-26T07:20:23.166Z,37.26
2019-04-26T07:23:17.383Z,37.08
2019-04-26T07:26:12.227Z,36.00
2019-04-26T07:29:17.441Z,35.58
2019-04-26T07:32:03.221Z,35.69
2019-04-26T07:34:57.622Z,35.65
2019-04-26T07:38:05.423Z,34.38
2019-04-26T07:41:01.466Z,34.18
2019-04-26T07:43:49.269Z,34.47
2019-04-26T07:46:48.350Z,33.57
2019-04-26T07:49:48.248Z,33.72
2019-04-26T07:52:23.338Z,33.98
2019-04-26T07:55:15.276Z,33.68
2019-04-26T07:58:03.551Z,32.40
2019-04-26T08:00:44.965Z,31.12
2019-04-26T08:03:23.291Z,31.37
2019-04-26T08:06:07.618Z,31.70
2019-04-26T08:08:47.666Z,32.07
2019-04-26T08:11:35.185Z,32.18
2019-04-26T08:14:12.592Z,31.41
2019-04-26T08:17:11.017Z,31.37
2019-04-26T08:19:48.559Z,28.90
2019-04-26T08:22:28.389Z,29.19
2019-04-26T08:24:57.995Z,28.62
2019-04-26T08:27:31.986Z,29.37
2019-04-26T08:30:12.771Z,31.38
2019-04-26T08:32:46.790Z,30.72
2019-04-26T08:35:22.652Z,30.41
2019-04-26T08:37:58.400Z,29.92
2019-04-26T08:40:31.943Z,30.02
2019-04-26T08:43:07.213Z,29.25
2019-04-26T08:45:45.589Z,28.63
2019-04-26T08:48:27.601Z,28.87
2019-04-26T08:51:00.794Z,28.55
2019-04-26T08:53:34.740Z,27.90
2019-04-26T08:56:07.448Z,27.28
2019-04-26T08:58:41.915Z,27.59
2019-04-26T09:01:26.247Z,27.03
2019-04-26T09:04:16.319Z,26.60
2019-04-26T09:06:52.590Z,26.84
2019-04-26T09:09:27.853Z,27.18
2019-04-26T09:12:08.348Z,27.01
2019-04-26T09:14:40.053Z,26.77
2019-04-26T09:17:12.014Z,27.89
2019-04-26T09:19:43.650Z,27.59
2019-04-26T09:22:16.775Z,27.54
2019-04-26T09:25:01.952Z,27.00
2019-04-26T09:27:47.688Z,27.70
2019-04-26T09:30:34.057Z,28.43
2019-04-26T09:33:07.831Z,29.01
2019-04-26T09:35:39.445Z,27.61
2019-04-26T09:38:10.908Z,26.81
2019-04-26T09:40:42.565Z,26.19
2019-04-26T09:43:16.786Z,26.30
2019-04-26T09:45:50.210Z,26.28
2019-04-26T09:48:23.196Z,26.55
2019-04-26T09:50:56.495Z,26.66
2019-04-26T09:53:28.089Z,25.74
2019-04-26T09:55:59.702Z,26.34
2019-04-26T09:58:32.238Z,26.62
2019-04-26T10:01:06.189Z,27.22
2019-04-26T10:03:37.331Z,26.62
2019-04-26T10:06:09.112Z,26.70
2019-04-26T10:08:43.339Z,25.76
2019-04-26T10:11:15.501Z,25.79
2019-04-26T10:13:51.296Z,25.49
2019-04-26T10:16:24.591Z,26.04
2019-04-26T10:18:58.257Z,25.37
2019-04-26T10:21:30.914Z,25.49
2019-04-26T10:24:03.208Z,25.88
2019-04-26T10:26:34.819Z,25.98
2019-04-26T10:29:06.409Z,25.94
2019-04-26T10:31:37.902Z,26.11
2019-04-26T10:34:11.937Z,26.06
2019-04-26T10:36:42.720Z,25.92
2019-04-26T10:39:16.075Z,26.05
2019-04-26T10:41:47.843Z,25.81
2019-04-26T10:44:19.585Z,25.94
2019-04-26T10:46:55.654Z,26.00
2019-04-26T10:49:44.707Z,26.49
2019-04-26T10:52:18.959Z,25.81
2019-04-26T10:54:52.119Z,26.38
2019-04-26T10:57:31.741Z,26.39
2019-04-26T11:00:05.141Z,25.75
2019-04-26T11:02:36.951Z,25.79
2019-04-26T11:05:11.620Z,25.36
2019-04-26T11:07:42.354Z,25.46
2019-04-26T11:10:14.183Z,25.31
2019-04-26T11:12:45.950Z,25.77
2019-04-26T11:15:18.633Z,25.62
2019-04-26T11:17:51.097Z,25.90
2019-04-26T11:20:22.914Z,25.20
2019-04-26T11:22:55.721Z,24.90
2019-04-26T11:25:28.228Z,24.75
2019-04-26T11:28:01.873Z,24.83
2019-04-26T11:30:33.494Z,25.22
2019-04-26T11:33:07.176Z,25.22
2019-04-26T11:35:38.369Z,25.03
2019-04-26T11:38:10.010Z,24.86
2019-04-26T11:40:44.339Z,25.28
2019-04-26T11:43:19.270Z,25.10
2019-04-26T11:45:50.249Z,24.88
2019-04-26T11:48:25.530Z,25.12
2019-04-26T11:50:56.348Z,25.04
2019-04-26T11:53:27.933Z,24.82
2019-04-26T11:56:00.169Z,24.88
2019-04-26T11:58:32.773Z,24.79
2019-04-26T12:01:05.813Z,25.47
2019-04-26T12:03:38.277Z,25.19
2019-04-26T12:06:17.670Z,26.15
2019-04-26T12:08:53.427Z,25.05
2019-04-26T12:11:30.329Z,25.76
2019-04-26T12:13:59.313Z,25.42
2019-04-26T12:16:31.565Z,25.37
2019-04-26T12:19:03.218Z,25.09
2019-04-26T12:21:35.108Z,25.01
2019-04-26T12:24:06.621Z,25.17
2019-04-26T12:26:43.113Z,25.01
2019-04-26T12:29:14.767Z,24.90
2019-04-26T12:31:44.608Z,24.79
2019-04-26T12:34:17.879Z,24.93
2019-04-26T12:36:50.835Z,25.05
2019-04-26T12:39:25.307Z,25.03
2019-04-26T12:41:56.746Z,25.13
2019-04-26T12:44:32.133Z,25.04
2019-04-26T12:47:11.544Z,24.63
2019-04-26T12:49:43.051Z,25.15
2019-04-26T12:52:17.588Z,25.15
2019-04-26T12:54:47.834Z,24.96
2019-04-26T12:57:19.418Z,25.02
2019-04-26T12:59:50.836Z,25.44
2019-04-26T13:02:22.424Z,25.12
2019-04-26T13:04:54.862Z,24.86
2019-04-26T13:07:26.372Z,25.10
2019-04-26T13:10:05.467Z,24.77
2019-04-26T13:12:55.047Z,24.78
2019-04-26T13:15:32.014Z,25.01
2019-04-26T13:18:03.248Z,25.17
2019-04-26T13:20:34.991Z,24.85
2019-04-26T13:23:07.655Z,25.23
2019-04-26T13:25:40.484Z,24.63
2019-04-26T13:28:15.663Z,24.82
2019-04-26T13:30:45.581Z,24.99
2019-04-26T13:33:17.133Z,25.10
2019-04-26T13:36:02.290Z,24.54
2019-04-26T13:38:21.982Z,24.61
2019-04-26T13:40:55.340Z,24.23
2019-04-26T13:43:28.545Z,24.85
2019-04-26T13:46:18.621Z,24.77
2019-04-26T13:48:52.903Z,25.17
2019-04-26T13:51:37.137Z,25.03
2019-04-26T13:54:16.445Z,24.87
2019-04-26T13:56:45.517Z,25.10
2019-04-26T13:59:17.321Z,25.33
2019-04-26T14:01:48.909Z,25.87
2019-04-26T14:04:20.646Z,26.12
2019-04-26T14:06:52.449Z,26.69
2019-04-26T14:09:24.789Z,26.58
2019-04-26T14:11:58.056Z,26.55
2019-04-26T14:14:30.307Z,26.89
2019-04-26T14:17:03.033Z,26.94
2019-04-26T14:19:34.558Z,26.65
2019-04-26T14:22:07.030Z,26.28
2019-04-26T14:24:46.976Z,26.46
2019-04-26T14:27:20.041Z,26.74
2019-04-26T14:29:51.437Z,26.44
2019-04-26T14:32:24.213Z,26.73
2019-04-26T14:34:55.781Z,26.95
2019-04-26T14:37:27.378Z,27.22
2019-04-26T14:39:59.150Z,27.40
2019-04-26T14:42:34.325Z,27.53
2019-04-26T14:45:23.926Z,28.13
2019-04-26T14:47:51.810Z,28.24
2019-04-26T14:50:23.215Z,27.86
2019-04-26T14:52:58.178Z,27.73
2019-04-26T14:55:28.073Z,27.64
2019-04-26T14:58:02.192Z,27.49
2019-04-26T15:00:41.411Z,27.64
2019-04-26T15:03:24.047Z,27.57
2019-04-26T15:06:03.577Z,27.71
2019-04-26T15:08:35.218Z,27.24
2019-04-26T15:11:06.564Z,27.12
2019-04-26T15:13:40.554Z,27.25
2019-04-26T15:16:13.687Z,27.51
2019-04-26T15:18:44.668Z,27.88
2019-04-26T15:21:16.111Z,28.02
2019-04-26T15:23:47.503Z,28.17
2019-04-26T15:26:23.077Z,27.85
2019-04-26T15:28:52.553Z,28.06
2019-04-26T15:31:25.002Z,28.04
2019-04-26T15:33:56.766Z,27.99
2019-04-26T15:36:28.264Z,27.93
2019-04-26T15:39:02.725Z,28.33
2019-04-26T15:41:47.149Z,28.24
2019-04-26T15:44:24.821Z,28.14
2019-04-26T15:47:13.064Z,28.16
2019-04-26T15:49:45.211Z,28.19
2019-04-26T15:52:16.633Z,28.31
2019-04-26T15:54:52.984Z,28.34
2019-04-26T15:57:24.389Z,28.23
2019-04-26T15:59:58.112Z,28.63
2019-04-26T16:02:28.882Z,28.92
2019-04-26T16:05:02.210Z,28.47
2019-04-26T16:07:34.516Z,28.18
2019-04-26T16:10:07.531Z,28.56
2019-04-26T16:12:39.168Z,28.84
2019-04-26T16:15:14.686Z,28.67
2019-04-26T16:17:46.488Z,28.58
2019-04-26T16:20:18.356Z,28.77
2019-04-26T16:22:49.925Z,28.73
2019-04-26T16:25:22.949Z,28.96
2019-04-26T16:28:12.633Z,29.21
2019-04-26T16:30:58.410Z,28.94
2019-04-26T16:33:37.382Z,29.09
2019-04-26T16:36:09.260Z,28.78
2019-04-26T16:38:40.790Z,28.88
2019-04-26T16:41:12.451Z,29.10
2019-04-26T16:43:52.213Z,29.14
2019-04-26T16:48:55.509Z,29.11
2019-04-26T16:51:24.136Z,28.88
2019-04-26T16:54:06.556Z,29.24
2019-04-26T16:56:29.035Z,28.83
2019-04-26T16:59:00.528Z,28.74
2019-04-26T17:00:32.073Z,29.19
2019-04-26T17:01:33.390Z,28.97
2019-04-26T17:04:10.937Z,29.13
2019-04-26T17:06:44.414Z,28.90
2019-04-26T17:09:14.142Z,29.03
2019-04-26T17:11:44.682Z,29.79
2019-04-26T17:14:16.371Z,29.56
2019-04-26T17:16:47.791Z,29.81
2019-04-26T17:19:19.983Z,29.83
2019-04-26T17:21:56.551Z,30.23
2019-04-26T17:24:38.138Z,30.08
2019-04-26T17:27:14.411Z,29.87
2019-04-26T17:29:45.755Z,29.96
2019-04-26T17:32:17.542Z,30.12
2019-04-26T17:34:49.164Z,30.16
2019-04-26T17:37:26.504Z,30.24
2019-04-26T17:39:55.616Z,30.34
2019-04-26T17:42:29.758Z,30.54
2019-04-26T17:45:03.977Z,30.55
2019-04-26T17:47:36.701Z,30.67
2019-04-26T17:50:08.631Z,30.79
2019-04-26T17:52:40.899Z,30.81
2019-04-26T17:55:14.848Z,30.83
2019-04-26T17:57:48.884Z,31.12
2019-04-26T18:00:27.464Z,31.17
2019-04-26T18:02:56.735Z,31.31
2019-04-26T18:05:45.027Z,31.46
2019-04-26T18:08:30.428Z,31.56
2019-04-26T18:10:35.561Z,31.67
2019-04-26T18:13:16.125Z,31.93
2019-04-26T18:15:46.992Z,31.91
2019-04-26T18:18:36.389Z,31.99
2019-04-26T18:21:27.695Z,33.11
2019-04-26T18:23:59.191Z,33.34
2019-04-26T18:26:33.976Z,33.25
2019-04-26T18:29:05.747Z,33.44
2019-04-26T18:31:37.270Z,33.87
2019-04-26T18:34:08.869Z,34.28
2019-04-26T18:36:40.250Z,34.46
2019-04-26T18:39:11.699Z,34.69
2019-04-26T18:41:44.385Z,34.36
2019-04-26T18:44:15.841Z,33.56
2019-04-26T18:46:58.141Z,33.46
2019-04-26T18:49:29.606Z,33.62
2019-04-26T18:52:01.321Z,33.51
2019-04-26T18:54:43.723Z,33.59
2019-04-26T18:57:17.151Z,34.46
2019-04-26T18:59:51.432Z,36.62
2019-04-26T19:02:23.649Z,36.22
2019-04-26T19:04:56.561Z,37.31
2019-04-26T19:07:32.223Z,36.59
2019-04-26T19:10:07.519Z,37.38
2019-04-26T19:12:41.217Z,38.09
2019-04-26T19:15:26.382Z,38.19
2019-04-26T19:18:15.941Z,38.67
2019-04-26T19:20:49.133Z,38.71
2019-04-26T19:23:22.806Z,39.08
2019-04-26T19:25:54.172Z,38.75
2019-04-26T19:28:25.693Z,39.23
2019-04-26T19:30:57.198Z,39.54
2019-04-26T19:33:28.678Z,40.04
2019-04-26T19:36:00.184Z,40.12
2019-04-26T19:38:32.916Z,39.64
2019-04-26T19:41:04.525Z,40.47
2019-04-26T19:43:39.214Z,38.00
2019-04-26T19:46:27.865Z,36.92
2019-04-26T19:49:16.711Z,37.37
2019-04-26T19:52:00.499Z,37.18
2019-04-26T19:54:41.827Z,37.30
2019-04-26T19:57:21.673Z,37.84
2019-04-26T19:59:53.957Z,36.98
2019-04-26T20:02:26.803Z,36.62
2019-04-26T20:05:02.377Z,37.98
2019-04-26T20:07:33.399Z,36.39
2019-04-26T20:10:05.939Z,35.61
2019-04-26T20:12:38.278Z,34.72
2019-04-26T20:15:24.931Z,33.88
2019-04-26T20:17:43.245Z,34.08
2019-04-26T20:20:19.400Z,33.49
2019-04-26T20:22:48.123Z,33.28
2019-04-26T20:25:22.360Z,33.15
2019-04-26T20:27:59.921Z,32.39
2019-04-26T20:30:37.758Z,32.61
2019-04-26T20:33:09.377Z,32.80
2019-04-26T20:35:42.272Z,32.36
2019-04-26T20:38:14.070Z,32.54
2019-04-26T20:40:47.545Z,32.73
2019-04-26T20:43:24.461Z,32.58
2019-04-26T20:46:10.880Z,32.38
2019-04-26T20:48:30.171Z,32.30
2019-04-26T20:51:02.449Z,32.18
2019-04-26T20:53:41.031Z,32.21
2019-04-26T20:56:09.991Z,30.90
2019-04-26T20:58:45.588Z,32.38
2019-04-26T21:01:15.718Z,31.85
2019-04-26T21:03:47.293Z,32.13
2019-04-26T21:06:18.727Z,32.34
2019-04-26T21:08:52.246Z,32.37
2019-04-26T21:11:23.612Z,32.25
2019-04-26T21:13:55.123Z,32.42
2019-04-26T21:16:26.576Z,32.44
2019-04-26T21:18:58.044Z,31.93
2019-04-26T21:21:29.556Z,32.49
2019-04-26T21:24:03.639Z,33.00
2019-04-26T21:26:39.420Z,32.81
2019-04-26T21:29:20.282Z,32.70
2019-04-26T21:31:59.536Z,32.68
2019-04-26T21:34:34.426Z,32.73
2019-04-26T21:37:22.203Z,32.36
2019-04-26T21:40:00.450Z,32.56
2019-04-26T21:42:33.373Z,32.52
2019-04-26T21:45:06.765Z,32.57
2019-04-26T21:47:38.167Z,32.54
2019-04-26T21:50:09.621Z,32.74
2019-04-26T21:52:40.956Z,32.38
2019-04-26T21:55:12.480Z,32.03
2019-04-26T21:57:43.972Z,32.52
2019-04-26T22:00:34.875Z,32.29
2019-04-26T22:03:12.592Z,32.21
2019-04-26T22:05:43.968Z,32.32
2019-04-26T22:08:17.436Z,32.84
2019-04-26T22:10:49.820Z,32.84
2019-04-26T22:13:41.649Z,32.91
2019-04-26T22:16:33.518Z,33.39
2019-04-26T22:18:59.362Z,33.22
2019-04-26T22:21:35.398Z,33.75
2019-04-26T22:24:14.590Z,34.40
2019-04-26T22:26:48.089Z,34.38
2019-04-26T22:29:19.316Z,34.73
2019-04-26T22:31:51.144Z,34.77
2019-04-26T22:34:23.530Z,34.14
2019-04-26T22:36:55.329Z,34.36
2019-04-26T22:39:26.949Z,35.61
2019-04-26T22:42:02.855Z,35.54
2019-04-26T22:44:36.612Z,35.75
2019-04-26T22:47:10.623Z,35.32
2019-04-26T22:49:45.188Z,35.42
2019-04-26T22:52:16.436Z,35.82
2019-04-26T22:54:48.192Z,36.14
2019-04-26T22:57:19.782Z,36.08
2019-04-26T22:59:53.572Z,35.28
2019-04-26T23:02:27.715Z,35.67
2019-04-26T23:05:00.603Z,36.05
2019-04-26T23:07:33.296Z,36.04
2019-04-26T23:10:07.402Z,36.12
2019-04-26T23:12:57.987Z,36.25
2019-04-26T23:15:33.223Z,36.40
2019-04-26T23:18:24.123Z,36.58
2019-04-26T23:20:57.428Z,36.44
2019-04-26T23:23:28.985Z,36.61
2019-04-26T23:26:02.271Z,37.18
2019-04-26T23:28:36.850Z,36.87
2019-04-26T23:31:09.243Z,35.52
2019-04-26T23:33:42.824Z,36.34
2019-04-26T23:36:18.435Z,37.70
2019-04-26T23:38:48.114Z,37.78
2019-04-26T23:41:19.646Z,37.85
2019-04-26T23:43:56.847Z,38.16
2019-04-26T23:46:25.939Z,37.97
2019-04-26T23:48:57.764Z,38.35
2019-04-26T23:51:29.268Z,38.20
2019-04-26T23:54:00.831Z,38.36
2019-04-26T23:56:33.469Z,38.49
2019-04-26T23:59:05.009Z,38.97
